sensor_id;sensor_type;location;lat;lon;timestamp;pressure;altitude;pressure_sealevel;temperature;humidity
54562;BME280;69047;53.358;-1.486;2024-02-21T00:00:02;100663.19;;;8.25;80.72
54562;BME280;69047;53.358;-1.486;2024-02-21T00:02:27;100652.88;;;8.34;79.78
54562;BME280;69047;53.358;-1.486;2024-02-21T00:04:53;100639.38;;;8.22;79.32
54562;BME280;69047;53.358;-1.486;2024-02-21T00:07:18;100634.59;;;8.36;79.57
54562;BME280;69047;53.358;-1.486;2024-02-21T00:09:44;100626.69;;;8.46;79.19
54562;BME280;69047;53.358;-1.486;2024-02-21T00:12:09;100622.97;;;8.36;79.54
54562;BME280;69047;53.358;-1.486;2024-02-21T00:14:37;100623.78;;;8.48;79.45
54562;BME280;69047;53.358;-1.486;2024-02-21T00:17:03;100614.94;;;8.52;79.05
54562;BME280;69047;53.358;-1.486;2024-02-21T00:19:29;100612.41;;;8.22;79.84
54562;BME280;69047;53.358;-1.486;2024-02-21T00:21:54;100608.94;;;8.62;79.38
54562;BME280;69047;53.358;-1.486;2024-02-21T00:24:19;100613.13;;;8.81;78.98
54562;BME280;69047;53.358;-1.486;2024-02-21T00:26:45;100604.28;;;8.85;78.03
54562;BME280;69047;53.358;-1.486;2024-02-21T00:29:10;100603.31;;;8.92;77.67
54562;BME280;69047;53.358;-1.486;2024-02-21T00:31:35;100590.81;;;9.02;77.91
54562;BME280;69047;53.358;-1.486;2024-02-21T00:34:01;100603.00;;;9.16;78.04
54562;BME280;69047;53.358;-1.486;2024-02-21T00:36:26;100608.72;;;9.20;77.64
54562;BME280;69047;53.358;-1.486;2024-02-21T00:38:52;100600.53;;;8.86;79.37
54562;BME280;69047;53.358;-1.486;2024-02-21T00:41:17;100608.31;;;8.83;79.69
54562;BME280;69047;53.358;-1.486;2024-02-21T00:43:43;100592.31;;;9.10;78.81
54562;BME280;69047;53.358;-1.486;2024-02-21T00:46:08;100596.13;;;9.25;77.85
54562;BME280;69047;53.358;-1.486;2024-02-21T00:48:34;100592.94;;;9.28;77.87
54562;BME280;69047;53.358;-1.486;2024-02-21T00:50:59;100589.25;;;9.34;77.49
54562;BME280;69047;53.358;-1.486;2024-02-21T00:53:25;100590.44;;;9.10;78.48
54562;BME280;69047;53.358;-1.486;2024-02-21T00:55:50;100585.63;;;9.29;78.23
54562;BME280;69047;53.358;-1.486;2024-02-21T00:58:15;100587.44;;;8.67;79.95
54562;BME280;69047;53.358;-1.486;2024-02-21T01:00:41;100581.16;;;8.89;80.02
54562;BME280;69047;53.358;-1.486;2024-02-21T01:03:06;100570.72;;;8.81;79.51
54562;BME280;69047;53.358;-1.486;2024-02-21T01:05:31;100558.53;;;8.79;79.64
54562;BME280;69047;53.358;-1.486;2024-02-21T01:07:57;100550.41;;;9.07;79.53
54562;BME280;69047;53.358;-1.486;2024-02-21T01:10:23;100544.47;;;9.22;79.57
54562;BME280;69047;53.358;-1.486;2024-02-21T01:12:49;100544.19;;;9.23;79.45
54562;BME280;69047;53.358;-1.486;2024-02-21T01:15:20;100528.56;;;9.09;80.37
54562;BME280;69047;53.358;-1.486;2024-02-21T01:17:53;100532.91;;;9.43;78.77
54562;BME280;69047;53.358;-1.486;2024-02-21T01:20:20;100539.19;;;9.65;77.43
54562;BME280;69047;53.358;-1.486;2024-02-21T01:22:46;100532.06;;;9.76;77.27
54562;BME280;69047;53.358;-1.486;2024-02-21T01:25:11;100525.34;;;9.62;77.58
54562;BME280;69047;53.358;-1.486;2024-02-21T01:27:37;100508.81;;;9.41;78.60
54562;BME280;69047;53.358;-1.486;2024-02-21T01:30:02;100507.69;;;9.54;78.33
54562;BME280;69047;53.358;-1.486;2024-02-21T01:32:28;100495.88;;;9.60;78.57
54562;BME280;69047;53.358;-1.486;2024-02-21T01:34:53;100494.03;;;9.82;77.47
54562;BME280;69047;53.358;-1.486;2024-02-21T01:37:18;100491.44;;;9.92;77.02
54562;BME280;69047;53.358;-1.486;2024-02-21T01:39:44;100487.69;;;9.93;76.77
54562;BME280;69047;53.358;-1.486;2024-02-21T01:42:09;100472.69;;;9.86;76.90
54562;BME280;69047;53.358;-1.486;2024-02-21T01:44:34;100449.31;;;9.96;76.73
54562;BME280;69047;53.358;-1.486;2024-02-21T01:47:01;100440.97;;;9.60;77.50
54562;BME280;69047;53.358;-1.486;2024-02-21T01:49:27;100428.06;;;9.45;78.63
54562;BME280;69047;53.358;-1.486;2024-02-21T01:51:53;100417.47;;;9.60;78.67
54562;BME280;69047;53.358;-1.486;2024-02-21T01:54:23;100411.00;;;9.83;77.83
54562;BME280;69047;53.358;-1.486;2024-02-21T01:56:56;100421.44;;;9.96;76.96
54562;BME280;69047;53.358;-1.486;2024-02-21T01:59:21;100421.41;;;9.91;76.70
54562;BME280;69047;53.358;-1.486;2024-02-21T02:01:47;100404.34;;;9.90;76.52
54562;BME280;69047;53.358;-1.486;2024-02-21T02:04:13;100398.75;;;9.97;76.30
54562;BME280;69047;53.358;-1.486;2024-02-21T02:06:40;100393.13;;;10.03;75.98
54562;BME280;69047;53.358;-1.486;2024-02-21T02:09:06;100385.06;;;10.09;76.40
54562;BME280;69047;53.358;-1.486;2024-02-21T02:11:32;100403.19;;;10.08;76.30
54562;BME280;69047;53.358;-1.486;2024-02-21T02:13:58;100389.75;;;10.13;76.31
54562;BME280;69047;53.358;-1.486;2024-02-21T02:16:23;100386.91;;;9.60;78.44
54562;BME280;69047;53.358;-1.486;2024-02-21T02:18:48;100375.72;;;9.94;78.82
54562;BME280;69047;53.358;-1.486;2024-02-21T02:21:29;100380.47;;;9.82;79.63
54562;BME280;69047;53.358;-1.486;2024-02-21T02:23:55;100368.44;;;9.52;81.36
54562;BME280;69047;53.358;-1.486;2024-02-21T02:26:20;100363.78;;;9.47;82.33
54562;BME280;69047;53.358;-1.486;2024-02-21T02:28:46;100351.72;;;9.33;82.24
54562;BME280;69047;53.358;-1.486;2024-02-21T02:31:11;100346.34;;;9.38;83.55
54562;BME280;69047;53.358;-1.486;2024-02-21T02:33:36;100338.69;;;9.30;84.14
54562;BME280;69047;53.358;-1.486;2024-02-21T02:36:02;100340.69;;;9.18;84.33
54562;BME280;69047;53.358;-1.486;2024-02-21T02:38:27;100335.97;;;9.47;84.23
54562;BME280;69047;53.358;-1.486;2024-02-21T02:40:53;100325.44;;;9.50;84.14
54562;BME280;69047;53.358;-1.486;2024-02-21T02:43:18;100315.44;;;9.29;85.00
54562;BME280;69047;53.358;-1.486;2024-02-21T02:45:43;100310.81;;;9.24;85.20
54562;BME280;69047;53.358;-1.486;2024-02-21T02:48:09;100309.03;;;9.57;85.29
54562;BME280;69047;53.358;-1.486;2024-02-21T02:50:34;100309.16;;;9.67;83.93
54562;BME280;69047;53.358;-1.486;2024-02-21T02:52:59;100291.81;;;9.63;84.17
54562;BME280;69047;53.358;-1.486;2024-02-21T02:55:25;100281.25;;;9.61;84.11
54562;BME280;69047;53.358;-1.486;2024-02-21T02:57:51;100278.72;;;9.76;83.87
54562;BME280;69047;53.358;-1.486;2024-02-21T03:00:17;100263.00;;;9.73;83.88
54562;BME280;69047;53.358;-1.486;2024-02-21T03:02:45;100247.88;;;9.51;83.30
54562;BME280;69047;53.358;-1.486;2024-02-21T03:05:20;100250.06;;;9.80;83.33
54562;BME280;69047;53.358;-1.486;2024-02-21T03:07:46;100233.31;;;9.78;83.46
54562;BME280;69047;53.358;-1.486;2024-02-21T03:10:13;100223.72;;;9.66;83.59
54562;BME280;69047;53.358;-1.486;2024-02-21T03:12:39;100221.19;;;9.86;83.47
54562;BME280;69047;53.358;-1.486;2024-02-21T03:15:05;100209.72;;;9.74;82.69
54562;BME280;69047;53.358;-1.486;2024-02-21T03:17:33;100202.41;;;9.69;83.52
54562;BME280;69047;53.358;-1.486;2024-02-21T03:20:05;100193.50;;;9.74;82.83
54562;BME280;69047;53.358;-1.486;2024-02-21T03:22:31;100190.09;;;9.57;82.95
54562;BME280;69047;53.358;-1.486;2024-02-21T03:24:57;100179.44;;;9.45;84.27
54562;BME280;69047;53.358;-1.486;2024-02-21T03:27:23;100169.13;;;9.69;83.67
54562;BME280;69047;53.358;-1.486;2024-02-21T03:29:48;100166.06;;;9.92;82.64
54562;BME280;69047;53.358;-1.486;2024-02-21T03:32:13;100157.19;;;9.96;82.27
54562;BME280;69047;53.358;-1.486;2024-02-21T03:34:39;100147.63;;;9.84;81.95
54562;BME280;69047;53.358;-1.486;2024-02-21T03:37:05;100135.03;;;9.94;81.82
54562;BME280;69047;53.358;-1.486;2024-02-21T03:39:33;100119.31;;;9.91;81.94
54562;BME280;69047;53.358;-1.486;2024-02-21T03:41:59;100118.69;;;9.79;83.71
54562;BME280;69047;53.358;-1.486;2024-02-21T03:44:30;100104.69;;;9.92;82.84
54562;BME280;69047;53.358;-1.486;2024-02-21T03:46:56;100098.47;;;9.92;82.71
54562;BME280;69047;53.358;-1.486;2024-02-21T03:49:21;100081.91;;;9.83;82.74
54562;BME280;69047;53.358;-1.486;2024-02-21T03:51:47;100069.84;;;10.01;81.80
54562;BME280;69047;53.358;-1.486;2024-02-21T03:54:13;100060.88;;;9.90;82.42
54562;BME280;69047;53.358;-1.486;2024-02-21T03:56:38;100060.78;;;9.75;82.72
54562;BME280;69047;53.358;-1.486;2024-02-21T03:59:06;100052.50;;;9.92;81.94
54562;BME280;69047;53.358;-1.486;2024-02-21T04:01:32;100049.56;;;9.98;81.99
54562;BME280;69047;53.358;-1.486;2024-02-21T04:03:57;100047.69;;;10.04;81.69
54562;BME280;69047;53.358;-1.486;2024-02-21T04:06:22;100035.50;;;9.96;82.13
54562;BME280;69047;53.358;-1.486;2024-02-21T04:08:48;100025.22;;;9.98;82.05
54562;BME280;69047;53.358;-1.486;2024-02-21T04:11:13;100020.97;;;9.66;82.07
54562;BME280;69047;53.358;-1.486;2024-02-21T04:13:39;100020.47;;;9.74;82.78
54562;BME280;69047;53.358;-1.486;2024-02-21T04:16:04;100017.59;;;9.85;82.28
54562;BME280;69047;53.358;-1.486;2024-02-21T04:18:31;100000.31;;;9.91;81.49
54562;BME280;69047;53.358;-1.486;2024-02-21T04:20:56;100003.28;;;9.95;81.59
54562;BME280;69047;53.358;-1.486;2024-02-21T04:23:21;99993.81;;;9.97;80.49
54562;BME280;69047;53.358;-1.486;2024-02-21T04:25:47;99988.16;;;9.99;81.00
54562;BME280;69047;53.358;-1.486;2024-02-21T04:28:12;99989.22;;;9.93;81.40
54562;BME280;69047;53.358;-1.486;2024-02-21T04:30:37;99978.69;;;9.91;81.26
54562;BME280;69047;53.358;-1.486;2024-02-21T04:33:03;99979.38;;;9.77;81.21
54562;BME280;69047;53.358;-1.486;2024-02-21T04:35:28;99977.88;;;9.91;81.41
54562;BME280;69047;53.358;-1.486;2024-02-21T04:37:54;99967.28;;;9.89;81.22
54562;BME280;69047;53.358;-1.486;2024-02-21T04:40:20;99960.19;;;9.73;81.72
54562;BME280;69047;53.358;-1.486;2024-02-21T04:42:45;99951.34;;;9.88;81.09
54562;BME280;69047;53.358;-1.486;2024-02-21T04:45:11;99937.09;;;10.08;80.47
54562;BME280;69047;53.358;-1.486;2024-02-21T04:47:37;99933.28;;;10.03;80.81
54562;BME280;69047;53.358;-1.486;2024-02-21T04:50:02;99926.25;;;10.02;80.36
54562;BME280;69047;53.358;-1.486;2024-02-21T04:52:28;99925.97;;;9.99;80.28
54562;BME280;69047;53.358;-1.486;2024-02-21T04:54:54;99921.38;;;9.94;80.85
54562;BME280;69047;53.358;-1.486;2024-02-21T04:57:20;99925.31;;;9.77;81.31
54562;BME280;69047;53.358;-1.486;2024-02-21T04:59:46;99914.31;;;9.88;81.04
54562;BME280;69047;53.358;-1.486;2024-02-21T05:02:14;99907.03;;;10.04;80.60
54562;BME280;69047;53.358;-1.486;2024-02-21T05:04:40;99889.69;;;9.95;80.62
54562;BME280;69047;53.358;-1.486;2024-02-21T05:07:07;99881.63;;;10.00;80.73
54562;BME280;69047;53.358;-1.486;2024-02-21T05:09:32;99867.28;;;9.94;80.83
54562;BME280;69047;53.358;-1.486;2024-02-21T05:11:57;99865.66;;;9.98;80.78
54562;BME280;69047;53.358;-1.486;2024-02-21T05:14:31;99847.97;;;9.66;81.75
54562;BME280;69047;53.358;-1.486;2024-02-21T05:16:58;99841.00;;;9.90;80.91
54562;BME280;69047;53.358;-1.486;2024-02-21T05:19:24;99843.19;;;9.98;80.91
54562;BME280;69047;53.358;-1.486;2024-02-21T05:21:49;99828.31;;;9.85;81.20
54562;BME280;69047;53.358;-1.486;2024-02-21T05:24:15;99815.31;;;9.87;81.19
54562;BME280;69047;53.358;-1.486;2024-02-21T05:26:40;99807.50;;;9.96;81.27
54562;BME280;69047;53.358;-1.486;2024-02-21T05:29:06;99796.94;;;9.84;81.09
54562;BME280;69047;53.358;-1.486;2024-02-21T05:34:22;99788.03;;;9.94;81.10
54562;BME280;69047;53.358;-1.486;2024-02-21T05:36:49;99786.66;;;9.86;81.88
54562;BME280;69047;53.358;-1.486;2024-02-21T05:39:15;99772.28;;;9.71;82.30
54562;BME280;69047;53.358;-1.486;2024-02-21T05:41:42;99751.75;;;9.70;82.38
54562;BME280;69047;53.358;-1.486;2024-02-21T05:44:07;99743.94;;;9.73;82.62
54562;BME280;69047;53.358;-1.486;2024-02-21T05:46:33;99740.94;;;9.75;82.12
54562;BME280;69047;53.358;-1.486;2024-02-21T05:48:59;99725.00;;;9.83;81.46
54562;BME280;69047;53.358;-1.486;2024-02-21T05:51:24;99715.78;;;9.74;82.30
54562;BME280;69047;53.358;-1.486;2024-02-21T05:53:50;99711.47;;;9.73;82.17
54562;BME280;69047;53.358;-1.486;2024-02-21T05:56:15;99713.38;;;9.93;81.37
54562;BME280;69047;53.358;-1.486;2024-02-21T05:58:43;99701.19;;;9.75;81.92
54562;BME280;69047;53.358;-1.486;2024-02-21T06:01:09;99699.84;;;9.83;81.71
54562;BME280;69047;53.358;-1.486;2024-02-21T06:03:35;99685.22;;;9.74;81.83
54562;BME280;69047;53.358;-1.486;2024-02-21T06:06:01;99679.84;;;9.69;82.45
54562;BME280;69047;53.358;-1.486;2024-02-21T06:08:27;99679.31;;;9.67;82.03
54562;BME280;69047;53.358;-1.486;2024-02-21T06:10:53;99667.69;;;9.61;82.35
54562;BME280;69047;53.358;-1.486;2024-02-21T06:13:26;99666.06;;;9.70;81.65
54562;BME280;69047;53.358;-1.486;2024-02-21T06:15:52;99656.88;;;9.76;81.80
54562;BME280;69047;53.358;-1.486;2024-02-21T06:18:18;99654.97;;;9.67;82.10
54562;BME280;69047;53.358;-1.486;2024-02-21T06:20:44;99639.56;;;9.62;81.51
54562;BME280;69047;53.358;-1.486;2024-02-21T06:23:10;99637.91;;;9.56;81.42
54562;BME280;69047;53.358;-1.486;2024-02-21T06:25:35;99642.81;;;9.64;80.85
54562;BME280;69047;53.358;-1.486;2024-02-21T06:28:00;99637.13;;;9.40;80.87
54562;BME280;69047;53.358;-1.486;2024-02-21T06:30:26;99644.69;;;9.43;81.48
54562;BME280;69047;53.358;-1.486;2024-02-21T06:32:52;99643.06;;;9.48;81.98
54562;BME280;69047;53.358;-1.486;2024-02-21T06:35:17;99619.78;;;9.26;81.07
54562;BME280;69047;53.358;-1.486;2024-02-21T06:37:42;99626.28;;;9.35;80.90
54562;BME280;69047;53.358;-1.486;2024-02-21T06:40:10;99615.22;;;9.37;80.58
54562;BME280;69047;53.358;-1.486;2024-02-21T06:42:36;99610.88;;;9.31;80.50
54562;BME280;69047;53.358;-1.486;2024-02-21T06:45:02;99617.88;;;9.32;80.85
54562;BME280;69047;53.358;-1.486;2024-02-21T06:47:30;99597.88;;;9.13;81.10
54562;BME280;69047;53.358;-1.486;2024-02-21T06:49:56;99578.19;;;9.27;80.33
54562;BME280;69047;53.358;-1.486;2024-02-21T06:52:21;99578.16;;;9.12;80.17
54562;BME280;69047;53.358;-1.486;2024-02-21T06:54:48;99581.16;;;9.16;79.69
54562;BME280;69047;53.358;-1.486;2024-02-21T06:57:13;99576.81;;;9.05;79.71
54562;BME280;69047;53.358;-1.486;2024-02-21T06:59:40;99571.66;;;8.98;80.65
54562;BME280;69047;53.358;-1.486;2024-02-21T07:02:05;99566.22;;;8.93;80.25
54562;BME280;69047;53.358;-1.486;2024-02-21T07:04:31;99556.53;;;9.02;79.85
54562;BME280;69047;53.358;-1.486;2024-02-21T07:06:56;99537.06;;;8.80;80.39
54562;BME280;69047;53.358;-1.486;2024-02-21T07:09:21;99534.31;;;8.60;80.92
54562;BME280;69047;53.358;-1.486;2024-02-21T07:11:47;99530.56;;;8.66;80.43
54562;BME280;69047;53.358;-1.486;2024-02-21T07:14:14;99530.03;;;8.74;79.99
54562;BME280;69047;53.358;-1.486;2024-02-21T07:16:40;99509.22;;;8.69;80.62
54562;BME280;69047;53.358;-1.486;2024-02-21T07:19:05;99506.84;;;8.83;80.64
54562;BME280;69047;53.358;-1.486;2024-02-21T07:21:31;99499.25;;;8.65;80.89
54562;BME280;69047;53.358;-1.486;2024-02-21T07:23:56;99498.72;;;8.68;80.80
54562;BME280;69047;53.358;-1.486;2024-02-21T07:26:22;99494.63;;;8.50;81.46
54562;BME280;69047;53.358;-1.486;2024-02-21T07:28:47;99477.13;;;8.68;81.30
54562;BME280;69047;53.358;-1.486;2024-02-21T07:31:13;99459.59;;;8.70;81.29
54562;BME280;69047;53.358;-1.486;2024-02-21T07:33:38;99449.88;;;8.74;81.15
54562;BME280;69047;53.358;-1.486;2024-02-21T07:36:07;99442.59;;;8.65;80.92
54562;BME280;69047;53.358;-1.486;2024-02-21T07:38:33;99443.38;;;8.60;81.93
54562;BME280;69047;53.358;-1.486;2024-02-21T07:40:59;99444.19;;;8.56;81.77
54562;BME280;69047;53.358;-1.486;2024-02-21T07:43:24;99434.22;;;8.56;82.35
54562;BME280;69047;53.358;-1.486;2024-02-21T07:45:51;99423.94;;;8.63;81.80
54562;BME280;69047;53.358;-1.486;2024-02-21T07:48:18;99413.72;;;8.75;81.27
54562;BME280;69047;53.358;-1.486;2024-02-21T07:50:44;99407.78;;;8.88;81.00
54562;BME280;69047;53.358;-1.486;2024-02-21T07:53:09;99402.88;;;8.40;83.08
54562;BME280;69047;53.358;-1.486;2024-02-21T07:55:35;99399.94;;;8.82;81.68
54562;BME280;69047;53.358;-1.486;2024-02-21T07:58:00;99396.72;;;8.75;81.95
54562;BME280;69047;53.358;-1.486;2024-02-21T08:00:25;99396.19;;;8.83;81.36
54562;BME280;69047;53.358;-1.486;2024-02-21T08:02:51;99385.91;;;8.85;81.63
54562;BME280;69047;53.358;-1.486;2024-02-21T08:05:16;99374.59;;;8.68;81.84
54562;BME280;69047;53.358;-1.486;2024-02-21T08:07:42;99365.13;;;8.96;81.19
54562;BME280;69047;53.358;-1.486;2024-02-21T08:10:08;99353.50;;;9.00;81.52
54562;BME280;69047;53.358;-1.486;2024-02-21T08:12:33;99349.75;;;8.91;80.99
54562;BME280;69047;53.358;-1.486;2024-02-21T08:14:59;99342.16;;;9.03;81.48
54562;BME280;69047;53.358;-1.486;2024-02-21T08:17:24;99330.00;;;9.06;81.37
54562;BME280;69047;53.358;-1.486;2024-02-21T08:19:50;99328.44;;;8.69;82.14
54562;BME280;69047;53.358;-1.486;2024-02-21T08:22:15;99321.13;;;8.95;81.79
54562;BME280;69047;53.358;-1.486;2024-02-21T08:24:41;99312.22;;;8.84;82.26
54562;BME280;69047;53.358;-1.486;2024-02-21T08:27:07;99301.09;;;9.16;81.64
54562;BME280;69047;53.358;-1.486;2024-02-21T08:29:32;99298.69;;;9.05;82.41
54562;BME280;69047;53.358;-1.486;2024-02-21T08:31:58;99294.94;;;8.90;82.68
54562;BME280;69047;53.358;-1.486;2024-02-21T08:34:29;99283.28;;;9.15;82.51
54562;BME280;69047;53.358;-1.486;2024-02-21T08:36:59;99268.22;;;8.94;83.09
54562;BME280;69047;53.358;-1.486;2024-02-21T08:39:24;99258.53;;;8.78;83.55
54562;BME280;69047;53.358;-1.486;2024-02-21T08:41:50;99242.53;;;8.97;83.57
54562;BME280;69047;53.358;-1.486;2024-02-21T08:44:16;99240.16;;;8.85;83.60
54562;BME280;69047;53.358;-1.486;2024-02-21T08:46:41;99226.91;;;8.94;83.98
54562;BME280;69047;53.358;-1.486;2024-02-21T08:49:09;99230.94;;;9.01;83.46
54562;BME280;69047;53.358;-1.486;2024-02-21T08:51:35;99225.00;;;9.04;83.59
54562;BME280;69047;53.358;-1.486;2024-02-21T08:54:01;99222.56;;;8.98;83.30
54562;BME280;69047;53.358;-1.486;2024-02-21T08:56:30;99204.97;;;9.05;82.53
54562;BME280;69047;53.358;-1.486;2024-02-21T08:58:56;99189.81;;;9.14;83.44
54562;BME280;69047;53.358;-1.486;2024-02-21T09:01:23;99180.06;;;9.23;82.41
54562;BME280;69047;53.358;-1.486;2024-02-21T09:03:48;99177.34;;;9.23;83.25
54562;BME280;69047;53.358;-1.486;2024-02-21T09:06:18;99160.94;;;9.15;83.70
54562;BME280;69047;53.358;-1.486;2024-02-21T09:08:45;99163.38;;;9.11;83.71
54562;BME280;69047;53.358;-1.486;2024-02-21T09:11:10;99145.03;;;9.13;83.53
54562;BME280;69047;53.358;-1.486;2024-02-21T09:13:35;99142.38;;;9.03;83.95
54562;BME280;69047;53.358;-1.486;2024-02-21T09:16:08;99136.22;;;8.93;84.91
54562;BME280;69047;53.358;-1.486;2024-02-21T09:18:34;99123.75;;;9.02;84.28
54562;BME280;69047;53.358;-1.486;2024-02-21T09:20:59;99113.75;;;9.02;83.92
54562;BME280;69047;53.358;-1.486;2024-02-21T09:23:25;99105.34;;;9.09;84.71
54562;BME280;69047;53.358;-1.486;2024-02-21T09:25:50;99103.41;;;9.14;84.33
54562;BME280;69047;53.358;-1.486;2024-02-21T09:28:16;99095.00;;;9.21;83.66
54562;BME280;69047;53.358;-1.486;2024-02-21T09:30:41;99080.41;;;9.22;83.66
54562;BME280;69047;53.358;-1.486;2024-02-21T09:33:06;99080.56;;;9.40;83.18
54562;BME280;69047;53.358;-1.486;2024-02-21T09:35:32;99064.81;;;9.48;82.68
54562;BME280;69047;53.358;-1.486;2024-02-21T09:37:59;99055.13;;;9.47;82.80
54562;BME280;69047;53.358;-1.486;2024-02-21T09:40:25;99046.88;;;9.28;83.52
54562;BME280;69047;53.358;-1.486;2024-02-21T09:43:02;99018.56;;;9.20;84.19
54562;BME280;69047;53.358;-1.486;2024-02-21T09:45:30;99018.75;;;9.34;83.73
54562;BME280;69047;53.358;-1.486;2024-02-21T09:50:53;99010.78;;;9.48;82.96
54562;BME280;69047;53.358;-1.486;2024-02-21T09:53:21;98999.53;;;9.40;83.74
54562;BME280;69047;53.358;-1.486;2024-02-21T09:55:52;98984.22;;;9.31;82.77
54562;BME280;69047;53.358;-1.486;2024-02-21T09:58:23;98973.41;;;9.31;83.36
54562;BME280;69047;53.358;-1.486;2024-02-21T10:01:09;98957.72;;;9.33;84.13
54562;BME280;69047;53.358;-1.486;2024-02-21T10:03:48;98942.44;;;9.47;83.65
54562;BME280;69047;53.358;-1.486;2024-02-21T10:06:17;98942.44;;;9.47;83.95
54562;BME280;69047;53.358;-1.486;2024-02-21T10:08:43;98928.50;;;9.64;83.26
54562;BME280;69047;53.358;-1.486;2024-02-21T10:11:09;98925.22;;;9.43;84.19
54562;BME280;69047;53.358;-1.486;2024-02-21T10:13:35;98915.56;;;9.61;83.52
54562;BME280;69047;53.358;-1.486;2024-02-21T10:16:07;98910.72;;;9.34;84.15
54562;BME280;69047;53.358;-1.486;2024-02-21T10:18:34;98897.84;;;9.50;84.05
54562;BME280;69047;53.358;-1.486;2024-02-21T10:21:07;98893.94;;;9.61;84.37
54562;BME280;69047;53.358;-1.486;2024-02-21T10:23:47;98891.25;;;9.61;83.50
54562;BME280;69047;53.358;-1.486;2024-02-21T10:26:14;98882.41;;;9.74;83.70
54562;BME280;69047;53.358;-1.486;2024-02-21T10:28:40;98849.13;;;9.78;84.04
54562;BME280;69047;53.358;-1.486;2024-02-21T10:31:08;98843.50;;;9.75;83.79
54562;BME280;69047;53.358;-1.486;2024-02-21T10:33:34;98838.75;;;9.67;84.78
54562;BME280;69047;53.358;-1.486;2024-02-21T10:36:09;98834.00;;;9.77;84.28
54562;BME280;69047;53.358;-1.486;2024-02-21T10:38:39;98832.69;;;9.75;84.41
54562;BME280;69047;53.358;-1.486;2024-02-21T10:41:05;98820.63;;;9.67;84.21
54562;BME280;69047;53.358;-1.486;2024-02-21T10:43:38;98822.03;;;9.83;84.39
54562;BME280;69047;53.358;-1.486;2024-02-21T10:46:08;98811.59;;;9.95;84.17
54562;BME280;69047;53.358;-1.486;2024-02-21T10:48:45;98812.31;;;10.01;83.66
54562;BME280;69047;53.358;-1.486;2024-02-21T10:51:18;98803.72;;;9.99;83.08
54562;BME280;69047;53.358;-1.486;2024-02-21T10:56:49;98791.72;;;10.05;83.57
54562;BME280;69047;53.358;-1.486;2024-02-21T10:59:16;98786.81;;;10.07;83.65
54562;BME280;69047;53.358;-1.486;2024-02-21T11:01:42;98765.50;;;10.06;83.63
54562;BME280;69047;53.358;-1.486;2024-02-21T11:04:08;98766.06;;;9.84;83.72
54562;BME280;69047;53.358;-1.486;2024-02-21T11:06:37;98751.69;;;9.70;85.06
54562;BME280;69047;53.358;-1.486;2024-02-21T11:09:05;98755.13;;;9.75;85.58
54562;BME280;69047;53.358;-1.486;2024-02-21T11:11:41;98745.69;;;9.91;84.11
54562;BME280;69047;53.358;-1.486;2024-02-21T11:16:43;98732.13;;;10.10;83.54
54562;BME280;69047;53.358;-1.486;2024-02-21T11:19:25;98717.94;;;9.67;85.67
54562;BME280;69047;53.358;-1.486;2024-02-21T11:21:52;98709.81;;;9.86;85.17
54562;BME280;69047;53.358;-1.486;2024-02-21T11:24:32;98712.44;;;9.91;85.78
54562;BME280;69047;53.358;-1.486;2024-02-21T11:27:19;98704.97;;;10.01;84.29
54562;BME280;69047;53.358;-1.486;2024-02-21T11:29:48;98690.66;;;10.01;84.59
54562;BME280;69047;53.358;-1.486;2024-02-21T11:32:18;98675.31;;;10.15;84.35
54562;BME280;69047;53.358;-1.486;2024-02-21T11:34:58;98687.47;;;10.13;84.68
54562;BME280;69047;53.358;-1.486;2024-02-21T11:37:33;98678.66;;;10.07;84.02
54562;BME280;69047;53.358;-1.486;2024-02-21T11:40:02;98669.09;;;10.15;83.94
54562;BME280;69047;53.358;-1.486;2024-02-21T11:42:29;98659.00;;;10.01;84.07
54562;BME280;69047;53.358;-1.486;2024-02-21T11:44:56;98644.31;;;10.08;84.59
54562;BME280;69047;53.358;-1.486;2024-02-21T11:47:24;98647.69;;;10.18;85.08
54562;BME280;69047;53.358;-1.486;2024-02-21T11:49:50;98637.81;;;10.09;85.03
54562;BME280;69047;53.358;-1.486;2024-02-21T11:52:21;98626.44;;;10.25;84.98
54562;BME280;69047;53.358;-1.486;2024-02-21T11:54:48;98625.47;;;10.35;83.84
54562;BME280;69047;53.358;-1.486;2024-02-21T11:57:14;98603.63;;;10.45;83.49
54562;BME280;69047;53.358;-1.486;2024-02-21T11:59:40;98591.19;;;10.30;83.59
54562;BME280;69047;53.358;-1.486;2024-02-21T12:02:06;98592.81;;;10.45;83.79
54562;BME280;69047;53.358;-1.486;2024-02-21T12:04:35;98585.09;;;10.38;82.75
54562;BME280;69047;53.358;-1.486;2024-02-21T12:07:05;98576.97;;;10.38;83.31
54562;BME280;69047;53.358;-1.486;2024-02-21T12:09:50;98557.53;;;10.50;83.12
54562;BME280;69047;53.358;-1.486;2024-02-21T12:12:20;98553.28;;;10.57;82.51
54562;BME280;69047;53.358;-1.486;2024-02-21T12:14:45;98530.56;;;10.45;83.13
54562;BME280;69047;53.358;-1.486;2024-02-21T12:17:22;98522.84;;;10.66;82.48
54562;BME280;69047;53.358;-1.486;2024-02-21T12:19:57;98496.94;;;10.73;82.63
54562;BME280;69047;53.358;-1.486;2024-02-21T12:22:22;98488.34;;;10.57;82.47
54562;BME280;69047;53.358;-1.486;2024-02-21T12:24:51;98506.50;;;10.57;82.71
54562;BME280;69047;53.358;-1.486;2024-02-21T12:27:16;98481.84;;;10.59;82.54
54562;BME280;69047;53.358;-1.486;2024-02-21T12:29:41;98470.94;;;10.50;83.20
54562;BME280;69047;53.358;-1.486;2024-02-21T12:32:07;98466.13;;;10.83;83.02
54562;BME280;69047;53.358;-1.486;2024-02-21T12:34:33;98452.59;;;10.83;82.31
54562;BME280;69047;53.358;-1.486;2024-02-21T12:36:59;98445.34;;;10.92;82.89
54562;BME280;69047;53.358;-1.486;2024-02-21T12:39:24;98434.03;;;10.90;81.59
54562;BME280;69047;53.358;-1.486;2024-02-21T12:41:52;98427.00;;;10.89;81.37
54562;BME280;69047;53.358;-1.486;2024-02-21T12:44:18;98425.34;;;11.01;82.26
54562;BME280;69047;53.358;-1.486;2024-02-21T12:46:46;98424.00;;;11.13;81.59
54562;BME280;69047;53.358;-1.486;2024-02-21T12:49:16;98422.31;;;11.03;81.74
54562;BME280;69047;53.358;-1.486;2024-02-21T12:51:42;98425.59;;;11.14;81.81
54562;BME280;69047;53.358;-1.486;2024-02-21T12:54:13;98417.78;;;11.12;81.72
54562;BME280;69047;53.358;-1.486;2024-02-21T12:56:39;98420.19;;;11.14;82.16
54562;BME280;69047;53.358;-1.486;2024-02-21T12:59:07;98411.44;;;10.94;82.43
54562;BME280;69047;53.358;-1.486;2024-02-21T13:01:36;98420.34;;;11.17;81.55
54562;BME280;69047;53.358;-1.486;2024-02-21T13:04:02;98406.75;;;11.08;83.15